sensor_id;sensor_type;location;lat;lon;timestamp;pressure;altitude;pressure_sealevel;temperature;humidity
41254;BME280;26987;59.928;30.306;2023-07-31T00:02:02;100457.72;;;17.17;89.23
41254;BME280;26987;59.928;30.306;2023-07-31T00:04:32;100453.38;;;17.16;89.13
41254;BME280;26987;59.928;30.306;2023-07-31T00:06:59;100447.41;;;17.14;89.57
41254;BME280;26987;59.928;30.306;2023-07-31T00:09:30;100461.25;;;17.18;89.67
41254;BME280;26987;59.928;30.306;2023-07-31T00:11:58;100458.50;;;17.12;89.73
41254;BME280;26987;59.928;30.306;2023-07-31T00:14:26;100457.72;;;17.17;88.96
41254;BME280;26987;59.928;30.306;2023-07-31T00:16:53;100463.13;;;17.17;89.31
41254;BME280;26987;59.928;30.306;2023-07-31T00:19:21;100468.56;;;17.17;89.29
41254;BME280;26987;59.928;30.306;2023-07-31T00:21:51;100470.75;;;17.20;89.11
41254;BME280;26987;59.928;30.306;2023-07-31T00:24:18;100473.19;;;17.17;89.49
41254;BME280;26987;59.928;30.306;2023-07-31T00:26:46;100473.19;;;17.17;89.08
41254;BME280;26987;59.928;30.306;2023-07-31T00:29:14;100466.41;;;17.19;88.97
41254;BME280;26987;59.928;30.306;2023-07-31T00:31:42;100471.84;;;17.19;89.23
41254;BME280;26987;59.928;30.306;2023-07-31T00:34:10;100471.84;;;17.19;89.05
41254;BME280;26987;59.928;30.306;2023-07-31T00:36:38;100447.28;;;17.03;89.06
41254;BME280;26987;59.928;30.306;2023-07-31T00:39:07;100472.94;;;17.23;88.93
41254;BME280;26987;59.928;30.306;2023-07-31T00:41:35;100476.75;;;17.22;88.99
41254;BME280;26987;59.928;30.306;2023-07-31T00:44:03;100481.59;;;17.20;89.35
41254;BME280;26987;59.928;30.306;2023-07-31T00:46:31;100481.59;;;17.20;89.42
41254;BME280;26987;59.928;30.306;2023-07-31T00:48:59;100478.59;;;17.17;89.83
41254;BME280;26987;59.928;30.306;2023-07-31T00:51:27;100481.03;;;17.18;89.40
41254;BME280;26987;59.928;30.306;2023-07-31T00:53:56;100481.03;;;17.18;89.37
41254;BME280;26987;59.928;30.306;2023-07-31T00:56:27;100479.38;;;17.17;89.60
41254;BME280;26987;59.928;30.306;2023-07-31T00:58:55;100486.19;;;17.20;89.36
41254;BME280;26987;59.928;30.306;2023-07-31T01:01:23;100491.88;;;17.18;89.81
41254;BME280;26987;59.928;30.306;2023-07-31T01:03:53;100487.81;;;17.21;90.02
41254;BME280;26987;59.928;30.306;2023-07-31T01:06:28;100484.03;;;17.22;89.87
41254;BME280;26987;59.928;30.306;2023-07-31T01:09:02;100414.63;;;16.83;89.82
41254;BME280;26987;59.928;30.306;2023-07-31T01:11:34;100465.31;;;17.15;90.10
41254;BME280;26987;59.928;30.306;2023-07-31T01:14:04;100476.75;;;17.22;90.13
41254;BME280;26987;59.928;30.306;2023-07-31T01:16:32;100478.63;;;17.22;90.29
41254;BME280;26987;59.928;30.306;2023-07-31T01:19:00;100472.34;;;17.16;90.15
41254;BME280;26987;59.928;30.306;2023-07-31T01:21:47;100484.63;;;17.29;90.24
41254;BME280;26987;59.928;30.306;2023-07-31T01:24:29;100476.75;;;17.27;90.01
41254;BME280;26987;59.928;30.306;2023-07-31T01:27:04;100481.63;;;17.25;90.33
41254;BME280;26987;59.928;30.306;2023-07-31T01:29:40;100463.09;;;17.12;90.29
41254;BME280;26987;59.928;30.306;2023-07-31T01:32:11;100477.56;;;17.23;90.56
41254;BME280;26987;59.928;30.306;2023-07-31T01:34:39;100469.69;;;17.21;90.33
41254;BME280;26987;59.928;30.306;2023-07-31T01:37:09;100465.06;;;17.22;90.98
41254;BME280;26987;59.928;30.306;2023-07-31T01:39:37;100465.91;;;17.22;90.94
41254;BME280;26987;59.928;30.306;2023-07-31T01:42:06;100461.06;;;17.24;90.77
41254;BME280;26987;59.928;30.306;2023-07-31T01:44:35;100472.75;;;17.30;90.65
41254;BME280;26987;59.928;30.306;2023-07-31T01:47:05;100459.13;;;17.25;90.56
41254;BME280;26987;59.928;30.306;2023-07-31T01:49:33;100472.75;;;17.35;90.36
41254;BME280;26987;59.928;30.306;2023-07-31T01:52:01;100469.25;;;17.35;90.45
41254;BME280;26987;59.928;30.306;2023-07-31T01:54:29;100475.78;;;17.39;90.04
41254;BME280;26987;59.928;30.306;2023-07-31T01:56:57;100474.44;;;17.42;89.63
41254;BME280;26987;59.928;30.306;2023-07-31T01:59:26;100474.50;;;17.47;89.24
41254;BME280;26987;59.928;30.306;2023-07-31T02:01:55;100469.34;;;17.50;89.51
41254;BME280;26987;59.928;30.306;2023-07-31T02:04:24;100465.53;;;17.46;89.41
41254;BME280;26987;59.928;30.306;2023-07-31T02:06:52;100476.44;;;17.57;89.19
41254;BME280;26987;59.928;30.306;2023-07-31T02:09:20;100437.34;;;17.42;88.97
41254;BME280;26987;59.928;30.306;2023-07-31T02:11:48;100467.84;;;17.65;88.66
41254;BME280;26987;59.928;30.306;2023-07-31T02:14:16;100466.25;;;17.74;88.49
41254;BME280;26987;59.928;30.306;2023-07-31T02:16:45;100460.88;;;17.80;87.52
41254;BME280;26987;59.928;30.306;2023-07-31T02:19:13;100473.44;;;17.96;87.16
41254;BME280;26987;59.928;30.306;2023-07-31T02:21:40;100470.75;;;18.01;86.71
41254;BME280;26987;59.928;30.306;2023-07-31T02:24:08;100458.56;;;18.09;86.32
41254;BME280;26987;59.928;30.306;2023-07-31T02:26:36;100462.22;;;18.31;85.06
41254;BME280;26987;59.928;30.306;2023-07-31T02:29:04;100461.22;;;18.58;83.91
41254;BME280;26987;59.928;30.306;2023-07-31T02:31:32;100442.50;;;18.66;81.67
41254;BME280;26987;59.928;30.306;2023-07-31T02:34:01;100456.41;;;19.01;80.36
41254;BME280;26987;59.928;30.306;2023-07-31T02:36:29;100473.81;;;19.37;79.25
41254;BME280;26987;59.928;30.306;2023-07-31T02:38:57;100480.31;;;19.46;78.65
41254;BME280;26987;59.928;30.306;2023-07-31T02:41:26;100458.50;;;19.88;76.61
41254;BME280;26987;59.928;30.306;2023-07-31T02:43:54;100471.53;;;20.62;73.42
41254;BME280;26987;59.928;30.306;2023-07-31T02:46:22;100475.34;;;21.41;69.50
41254;BME280;26987;59.928;30.306;2023-07-31T02:48:51;100471.56;;;22.40;64.50
41254;BME280;26987;59.928;30.306;2023-07-31T02:51:20;100459.44;;;23.04;61.21
41254;BME280;26987;59.928;30.306;2023-07-31T02:53:48;100469.44;;;23.90;57.51
41254;BME280;26987;59.928;30.306;2023-07-31T02:56:16;100476.88;;;24.68;54.59
41254;BME280;26987;59.928;30.306;2023-07-31T02:58:44;100477.16;;;25.27;51.63
41254;BME280;26987;59.928;30.306;2023-07-31T03:01:12;100478.50;;;25.70;49.87
41254;BME280;26987;59.928;30.306;2023-07-31T03:03:41;100448.22;;;25.84;48.77
41254;BME280;26987;59.928;30.306;2023-07-31T03:06:09;100401.06;;;25.91;46.69
41254;BME280;26987;59.928;30.306;2023-07-31T03:08:38;100467.78;;;26.76;46.09
41254;BME280;26987;59.928;30.306;2023-07-31T03:11:06;100472.66;;;27.93;42.34
41254;BME280;26987;59.928;30.306;2023-07-31T03:13:34;100465.63;;;28.56;39.88
41254;BME280;26987;59.928;30.306;2023-07-31T03:16:02;100467.69;;;28.80;39.58
41254;BME280;26987;59.928;30.306;2023-07-31T03:18:30;100460.69;;;29.04;39.49
41254;BME280;26987;59.928;30.306;2023-07-31T03:20:58;100442.97;;;29.64;37.48
41254;BME280;26987;59.928;30.306;2023-07-31T03:23:26;100446.06;;;30.00;37.43
41254;BME280;26987;59.928;30.306;2023-07-31T03:25:59;100457.38;;;30.90;35.78
41254;BME280;26987;59.928;30.306;2023-07-31T03:28:31;100453.88;;;30.93;35.56
41254;BME280;26987;59.928;30.306;2023-07-31T03:30:59;100459.53;;;30.96;34.97
41254;BME280;26987;59.928;30.306;2023-07-31T03:33:26;100456.28;;;30.78;35.05
41254;BME280;26987;59.928;30.306;2023-07-31T03:35:54;100450.53;;;31.16;34.18
41254;BME280;26987;59.928;30.306;2023-07-31T03:38:22;100453.41;;;32.00;32.23
41254;BME280;26987;59.928;30.306;2023-07-31T03:40:50;100455.03;;;31.69;32.65
41254;BME280;26987;59.928;30.306;2023-07-31T03:43:19;100457.63;;;31.78;32.65
41254;BME280;26987;59.928;30.306;2023-07-31T03:45:47;100454.84;;;31.29;33.41
41254;BME280;26987;59.928;30.306;2023-07-31T03:48:15;100446.16;;;31.15;33.51
41254;BME280;26987;59.928;30.306;2023-07-31T03:50:43;100437.28;;;31.54;32.37
41254;BME280;26987;59.928;30.306;2023-07-31T03:53:11;100440.72;;;31.67;32.03
41254;BME280;26987;59.928;30.306;2023-07-31T03:55:39;100441.00;;;31.78;32.14
41254;BME280;26987;59.928;30.306;2023-07-31T03:58:07;100441.44;;;32.16;31.99
41254;BME280;26987;59.928;30.306;2023-07-31T04:00:36;100445.16;;;31.88;32.55
41254;BME280;26987;59.928;30.306;2023-07-31T04:03:04;100443.50;;;31.67;32.50
41254;BME280;26987;59.928;30.306;2023-07-31T04:05:32;100434.31;;;32.34;31.37
41254;BME280;26987;59.928;30.306;2023-07-31T04:08:00;100445.09;;;32.99;30.68
41254;BME280;26987;59.928;30.306;2023-07-31T04:10:28;100434.25;;;32.51;30.69
41254;BME280;26987;59.928;30.306;2023-07-31T04:12:57;100433.31;;;31.71;32.12
41254;BME280;26987;59.928;30.306;2023-07-31T04:15:25;100429.25;;;29.93;35.01
41254;BME280;26987;59.928;30.306;2023-07-31T04:17:54;100428.44;;;28.62;37.09
41254;BME280;26987;59.928;30.306;2023-07-31T04:20:22;100434.44;;;28.64;37.29
41254;BME280;26987;59.928;30.306;2023-07-31T04:22:50;100421.16;;;27.54;39.23
41254;BME280;26987;59.928;30.306;2023-07-31T04:25:18;100424.69;;;27.55;39.18
41254;BME280;26987;59.928;30.306;2023-07-31T04:27:45;100423.38;;;27.61;39.41
41254;BME280;26987;59.928;30.306;2023-07-31T04:30:13;100402.34;;;27.56;39.03
41254;BME280;26987;59.928;30.306;2023-07-31T04:32:41;100420.50;;;28.18;38.07
41254;BME280;26987;59.928;30.306;2023-07-31T04:35:10;100427.25;;;29.18;36.62
41254;BME280;26987;59.928;30.306;2023-07-31T04:37:38;100422.22;;;30.20;34.29
41254;BME280;26987;59.928;30.306;2023-07-31T04:40:07;100419.44;;;30.20;34.44
41254;BME280;26987;59.928;30.306;2023-07-31T04:42:35;100421.53;;;30.24;33.47
41254;BME280;26987;59.928;30.306;2023-07-31T04:45:03;100427.59;;;30.29;33.65
41254;BME280;26987;59.928;30.306;2023-07-31T04:47:31;100423.38;;;30.19;34.18
41254;BME280;26987;59.928;30.306;2023-07-31T04:50:00;100419.84;;;29.69;34.94
41254;BME280;26987;59.928;30.306;2023-07-31T04:52:29;100423.81;;;28.88;36.61
41254;BME280;26987;59.928;30.306;2023-07-31T04:54:57;100412.69;;;27.99;38.48
41254;BME280;26987;59.928;30.306;2023-07-31T04:57:24;100412.41;;;27.91;38.37
41254;BME280;26987;59.928;30.306;2023-07-31T04:59:52;100412.25;;;27.57;38.85
41254;BME280;26987;59.928;30.306;2023-07-31T05:02:20;100413.16;;;27.31;39.53
41254;BME280;26987;59.928;30.306;2023-07-31T05:04:48;100422.16;;;27.02;40.58
41254;BME280;26987;59.928;30.306;2023-07-31T05:07:16;100409.84;;;26.90;40.62
41254;BME280;26987;59.928;30.306;2023-07-31T05:09:45;100409.03;;;26.90;41.31
41254;BME280;26987;59.928;30.306;2023-07-31T05:12:13;100413.72;;;26.98;40.17
41254;BME280;26987;59.928;30.306;2023-07-31T05:14:41;100409.84;;;26.99;40.13
41254;BME280;26987;59.928;30.306;2023-07-31T05:17:09;100408.72;;;27.48;39.37
41254;BME280;26987;59.928;30.306;2023-07-31T05:19:37;100408.81;;;28.00;38.98
41254;BME280;26987;59.928;30.306;2023-07-31T05:22:05;100409.63;;;28.64;37.37
41254;BME280;26987;59.928;30.306;2023-07-31T05:24:33;100415.91;;;29.32;35.73
41254;BME280;26987;59.928;30.306;2023-07-31T05:27:03;100407.03;;;29.27;35.82
41254;BME280;26987;59.928;30.306;2023-07-31T05:29:30;100409.78;;;29.27;35.84
41254;BME280;26987;59.928;30.306;2023-07-31T05:31:58;100415.22;;;29.98;34.18
41254;BME280;26987;59.928;30.306;2023-07-31T05:34:26;100400.84;;;29.80;34.29
41254;BME280;26987;59.928;30.306;2023-07-31T05:36:54;100417.28;;;29.89;33.95
41254;BME280;26987;59.928;30.306;2023-07-31T05:39:22;100417.97;;;29.48;33.99
41254;BME280;26987;59.928;30.306;2023-07-31T05:41:50;100409.78;;;29.14;34.29
41254;BME280;26987;59.928;30.306;2023-07-31T05:44:19;100414.00;;;28.99;34.33
41254;BME280;26987;59.928;30.306;2023-07-31T05:46:47;100407.13;;;28.50;35.30
41254;BME280;26987;59.928;30.306;2023-07-31T05:49:15;100410.56;;;28.47;35.53
41254;BME280;26987;59.928;30.306;2023-07-31T05:51:42;100417.75;;;29.41;33.63
41254;BME280;26987;59.928;30.306;2023-07-31T05:54:10;100413.91;;;31.06;31.06
41254;BME280;26987;59.928;30.306;2023-07-31T05:56:38;100414.13;;;32.97;28.97
41254;BME280;26987;59.928;30.306;2023-07-31T05:59:06;100414.63;;;34.34;26.55
41254;BME280;26987;59.928;30.306;2023-07-31T06:01:35;100422.84;;;34.96;25.36
41254;BME280;26987;59.928;30.306;2023-07-31T06:04:03;100412.75;;;35.22;25.55
41254;BME280;26987;59.928;30.306;2023-07-31T06:06:31;100413.38;;;35.53;24.84
41254;BME280;26987;59.928;30.306;2023-07-31T06:08:59;100407.50;;;35.66;24.96
41254;BME280;26987;59.928;30.306;2023-07-31T06:11:27;100410.59;;;35.53;25.09
41254;BME280;26987;59.928;30.306;2023-07-31T06:13:54;100413.88;;;35.17;24.88
41254;BME280;26987;59.928;30.306;2023-07-31T06:16:22;100415.75;;;36.15;23.96
41254;BME280;26987;59.928;30.306;2023-07-31T06:18:52;100404.41;;;35.78;24.28
41254;BME280;26987;59.928;30.306;2023-07-31T06:21:19;100403.00;;;34.63;25.27
41254;BME280;26987;59.928;30.306;2023-07-31T06:23:47;100413.75;;;33.45;25.74
41254;BME280;26987;59.928;30.306;2023-07-31T06:26:15;100407.03;;;32.17;28.08
41254;BME280;26987;59.928;30.306;2023-07-31T06:28:43;100402.47;;;30.92;30.64
41254;BME280;26987;59.928;30.306;2023-07-31T06:31:11;100387.25;;;29.87;31.04
41254;BME280;26987;59.928;30.306;2023-07-31T06:33:38;100410.59;;;29.27;32.71
41254;BME280;26987;59.928;30.306;2023-07-31T06:36:08;100405.38;;;28.45;33.88
41254;BME280;26987;59.928;30.306;2023-07-31T06:38:35;100400.78;;;27.86;35.31
41254;BME280;26987;59.928;30.306;2023-07-31T06:41:04;100397.59;;;27.36;36.38
41254;BME280;26987;59.928;30.306;2023-07-31T06:43:31;100390.88;;;26.98;36.72
41254;BME280;26987;59.928;30.306;2023-07-31T06:46:04;100399.97;;;26.89;37.32
41254;BME280;26987;59.928;30.306;2023-07-31T06:48:32;100392.56;;;26.54;37.38
41254;BME280;26987;59.928;30.306;2023-07-31T06:51:00;100373.19;;;26.42;36.55
41254;BME280;26987;59.928;30.306;2023-07-31T06:53:29;100399.66;;;26.29;38.09
41254;BME280;26987;59.928;30.306;2023-07-31T06:55:57;100390.28;;;26.03;38.02
41254;BME280;26987;59.928;30.306;2023-07-31T06:58:25;100392.53;;;26.01;38.20
41254;BME280;26987;59.928;30.306;2023-07-31T07:00:53;100390.09;;;25.91;38.06
41254;BME280;26987;59.928;30.306;2023-07-31T07:03:21;100370.75;;;25.55;38.34
41254;BME280;26987;59.928;30.306;2023-07-31T07:05:48;100373.81;;;25.45;37.84
41254;BME280;26987;59.928;30.306;2023-07-31T07:08:16;100387.50;;;25.45;38.24
41254;BME280;26987;59.928;30.306;2023-07-31T07:10:46;100389.22;;;25.64;38.38
41254;BME280;26987;59.928;30.306;2023-07-31T07:13:14;100387.63;;;25.80;38.16
41254;BME280;26987;59.928;30.306;2023-07-31T07:15:42;100389.31;;;25.99;37.71
41254;BME280;26987;59.928;30.306;2023-07-31T07:18:09;100387.72;;;26.16;37.61
41254;BME280;26987;59.928;30.306;2023-07-31T07:20:38;100386.91;;;26.24;37.67
41254;BME280;26987;59.928;30.306;2023-07-31T07:23:05;100390.94;;;26.18;37.58
41254;BME280;26987;59.928;30.306;2023-07-31T07:25:33;100395.25;;;25.92;38.38
41254;BME280;26987;59.928;30.306;2023-07-31T07:28:06;100396.03;;;25.75;37.61
41254;BME280;26987;59.928;30.306;2023-07-31T07:30:34;100391.06;;;25.45;38.40
41254;BME280;26987;59.928;30.306;2023-07-31T07:33:02;100393.63;;;25.42;38.56
41254;BME280;26987;59.928;30.306;2023-07-31T07:35:30;100391.81;;;25.28;38.54
41254;BME280;26987;59.928;30.306;2023-07-31T07:37:57;100391.75;;;25.19;39.18
41254;BME280;26987;59.928;30.306;2023-07-31T07:40:25;100395.44;;;25.15;39.91
41254;BME280;26987;59.928;30.306;2023-07-31T07:42:53;100398.03;;;25.20;39.84
41254;BME280;26987;59.928;30.306;2023-07-31T07:45:23;100397.00;;;25.07;40.54
41254;BME280;26987;59.928;30.306;2023-07-31T07:47:50;100400.44;;;25.13;40.35
41254;BME280;26987;59.928;30.306;2023-07-31T07:50:19;100402.72;;;25.19;40.77
41254;BME280;26987;59.928;30.306;2023-07-31T07:52:46;100396.13;;;25.21;40.62
41254;BME280;26987;59.928;30.306;2023-07-31T07:55:14;100409.91;;;25.06;40.75
41254;BME280;26987;59.928;30.306;2023-07-31T07:57:42;100385.81;;;24.94;41.19
41254;BME280;26987;59.928;30.306;2023-07-31T08:00:12;100406.84;;;25.08;40.61
41254;BME280;26987;59.928;30.306;2023-07-31T08:02:42;100399.03;;;24.92;41.25
41254;BME280;26987;59.928;30.306;2023-07-31T08:05:10;100402.63;;;25.02;41.47
41254;BME280;26987;59.928;30.306;2023-07-31T08:07:37;100405.75;;;25.09;41.09
41254;BME280;26987;59.928;30.306;2023-07-31T08:10:06;100398.00;;;25.11;40.92
41254;BME280;26987;59.928;30.306;2023-07-31T08:12:34;100397.94;;;25.02;40.60
41254;BME280;26987;59.928;30.306;2023-07-31T08:15:02;100403.53;;;25.20;40.44
41254;BME280;26987;59.928;30.306;2023-07-31T08:17:30;100397.88;;;25.16;39.75
41254;BME280;26987;59.928;30.306;2023-07-31T08:19:59;100401.06;;;25.10;40.65
41254;BME280;26987;59.928;30.306;2023-07-31T08:22:27;100404.41;;;25.38;40.15
41254;BME280;26987;59.928;30.306;2023-07-31T08:24:55;100398.00;;;25.43;40.09
41254;BME280;26987;59.928;30.306;2023-07-31T08:27:23;100403.34;;;25.48;39.57
41254;BME280;26987;59.928;30.306;2023-07-31T08:29:52;100406.00;;;25.62;39.32
41254;BME280;26987;59.928;30.306;2023-07-31T08:32:19;100399.56;;;25.76;38.81
41254;BME280;26987;59.928;30.306;2023-07-31T08:34:47;100401.69;;;25.88;39.11
41254;BME280;26987;59.928;30.306;2023-07-31T08:37:16;100399.16;;;26.18;37.86
41254;BME280;26987;59.928;30.306;2023-07-31T08:39:44;100407.09;;;26.11;37.45
41254;BME280;26987;59.928;30.306;2023-07-31T08:42:12;100399.00;;;26.05;37.61
41254;BME280;26987;59.928;30.306;2023-07-31T08:44:40;100397.88;;;26.06;36.92
41254;BME280;26987;59.928;30.306;2023-07-31T08:47:09;100399.34;;;26.04;37.04
41254;BME280;26987;59.928;30.306;2023-07-31T08:49:38;100404.31;;;25.93;36.97
41254;BME280;26987;59.928;30.306;2023-07-31T08:52:07;100414.78;;;25.82;37.26
41254;BME280;26987;59.928;30.306;2023-07-31T08:54:36;100364.94;;;25.48;37.04
41254;BME280;26987;59.928;30.306;2023-07-31T08:57:05;100403.63;;;25.78;37.18
41254;BME280;26987;59.928;30.306;2023-07-31T08:59:35;100357.84;;;25.56;37.19
41254;BME280;26987;59.928;30.306;2023-07-31T09:02:06;100379.75;;;25.97;37.10
41254;BME280;26987;59.928;30.306;2023-07-31T09:04:35;100409.69;;;26.16;36.76
41254;BME280;26987;59.928;30.306;2023-07-31T09:07:04;100410.16;;;26.27;36.52
41254;BME280;26987;59.928;30.306;2023-07-31T09:09:33;100406.16;;;26.42;35.75
41254;BME280;26987;59.928;30.306;2023-07-31T09:12:02;100411.03;;;26.63;35.46
41254;BME280;26987;59.928;30.306;2023-07-31T09:14:32;100405.19;;;26.64;35.37
41254;BME280;26987;59.928;30.306;2023-07-31T09:17:01;100406.28;;;26.90;35.35
41254;BME280;26987;59.928;30.306;2023-07-31T09:19:33;100383.00;;;27.05;35.23
41254;BME280;26987;59.928;30.306;2023-07-31T09:22:04;100405.44;;;27.16;35.00
41254;BME280;26987;59.928;30.306;2023-07-31T09:24:32;100395.91;;;27.13;34.57
41254;BME280;26987;59.928;30.306;2023-07-31T09:27:02;100400.22;;;27.32;35.35
41254;BME280;26987;59.928;30.306;2023-07-31T09:29:30;100400.41;;;27.66;35.04
41254;BME280;26987;59.928;30.306;2023-07-31T09:31:58;100405.31;;;27.51;34.55
41254;BME280;26987;59.928;30.306;2023-07-31T09:34:36;100406.53;;;27.24;34.80
41254;BME280;26987;59.928;30.306;2023-07-31T09:37:05;100401.22;;;27.10;35.10
41254;BME280;26987;59.928;30.306;2023-07-31T09:39:45;100403.16;;;27.18;35.30
41254;BME280;26987;59.928;30.306;2023-07-31T09:42:24;100411.59;;;26.95;35.43
41254;BME280;26987;59.928;30.306;2023-07-31T09:44:52;100399.69;;;26.73;35.90
41254;BME280;26987;59.928;30.306;2023-07-31T09:47:23;100404.72;;;26.44;36.53
41254;BME280;26987;59.928;30.306;2023-07-31T09:49:51;100401.91;;;26.18;37.40
41254;BME280;26987;59.928;30.306;2023-07-31T09:52:19;100401.25;;;26.03;37.95
41254;BME280;26987;59.928;30.306;2023-07-31T09:54:47;100397.34;;;25.95;38.60
41254;BME280;26987;59.928;30.306;2023-07-31T09:57:17;100394.16;;;26.02;38.77
41254;BME280;26987;59.928;30.306;2023-07-31T09:59:46;100400.81;;;26.28;38.21
41254;BME280;26987;59.928;30.306;2023-07-31T10:02:21;100387.75;;;26.34;38.06
41254;BME280;26987;59.928;30.306;2023-07-31T10:04:50;100381.09;;;26.52;38.36
41254;BME280;26987;59.928;30.306;2023-07-31T10:07:18;100391.25;;;26.78;37.86
41254;BME280;26987;59.928;30.306;2023-07-31T10:09:48;100381.84;;;26.97;37.33
41254;BME280;26987;59.928;30.306;2023-07-31T10:12:19;100361.59;;;27.11;36.84
41254;BME280;26987;59.928;30.306;2023-07-31T10:14:50;100381.53;;;27.07;36.95
41254;BME280;26987;59.928;30.306;2023-07-31T10:17:21;100390.59;;;26.99;37.11
41254;BME280;26987;59.928;30.306;2023-07-31T10:19:49;100393.19;;;26.87;37.34
41254;BME280;26987;59.928;30.306;2023-07-31T10:22:19;100392.56;;;26.72;38.05
41254;BME280;26987;59.928;30.306;2023-07-31T10:24:48;100392.25;;;26.47;38.64
41254;BME280;26987;59.928;30.306;2023-07-31T10:27:18;100388.38;;;26.48;38.16
41254;BME280;26987;59.928;30.306;2023-07-31T10:29:47;100383.34;;;26.24;38.14
41254;BME280;26987;59.928;30.306;2023-07-31T10:32:17;100370.09;;;26.26;38.48
41254;BME280;26987;59.928;30.306;2023-07-31T10:34:45;100379.69;;;26.37;37.80
41254;BME280;26987;59.928;30.306;2023-07-31T10:37:21;100362.19;;;26.42;38.16
41254;BME280;26987;59.928;30.306;2023-07-31T10:40:00;100364.28;;;26.54;37.71
41254;BME280;26987;59.928;30.306;2023-07-31T10:42:32;100384.50;;;26.67;37.11
41254;BME280;26987;59.928;30.306;2023-07-31T10:45:02;100383.06;;;26.43;36.81
41254;BME280;26987;59.928;30.306;2023-07-31T10:47:30;100378.34;;;26.17;36.53
41254;BME280;26987;59.928;30.306;2023-07-31T10:50:16;100377.19;;;26.27;36.91
41254;BME280;26987;59.928;30.306;2023-07-31T10:52:49;100368.81;;;26.14;37.39
41254;BME280;26987;59.928;30.306;2023-07-31T10:55:26;100325.81;;;25.92;36.76
41254;BME280;26987;59.928;30.306;2023-07-31T10:57:57;100369.91;;;26.04;37.32
41254;BME280;26987;59.928;30.306;2023-07-31T11:00:27;100374.09;;;25.93;37.07
41254;BME280;26987;59.928;30.306;2023-07-31T11:02:59;100355.50;;;25.72;37.15
41254;BME280;26987;59.928;30.306;2023-07-31T11:05:48;100352.13;;;25.75;37.39
41254;BME280;26987;59.928;30.306;2023-07-31T11:08:18;100367.59;;;25.71;37.33
41254;BME280;26987;59.928;30.306;2023-07-31T11:10:47;100341.34;;;25.47;37.42
41254;BME280;26987;59.928;30.306;2023-07-31T11:13:17;100371.63;;;25.65;38.08
41254;BME280;26987;59.928;30.306;2023-07-31T11:15:45;100361.94;;;25.67;37.53
41254;BME280;26987;59.928;30.306;2023-07-31T11:18:13;100365.00;;;25.66;37.75
41254;BME280;26987;59.928;30.306;2023-07-31T11:20:41;100365.16;;;25.69;38.64
41254;BME280;26987;59.928;30.306;2023-07-31T11:23:10;100351.28;;;25.66;38.94
41254;BME280;26987;59.928;30.306;2023-07-31T11:25:39;100361.47;;;25.74;38.75
41254;BME280;26987;59.928;30.306;2023-07-31T11:28:09;100362.94;;;25.80;39.31
41254;BME280;26987;59.928;30.306;2023-07-31T11:30:40;100366.50;;;25.81;38.35
41254;BME280;26987;59.928;30.306;2023-07-31T11:33:10;100370.84;;;25.73;39.38
41254;BME280;26987;59.928;30.306;2023-07-31T11:35:41;100355.63;;;25.67;39.64
41254;BME280;26987;59.928;30.306;2023-07-31T11:38:11;100262.13;;;24.96;39.41
41254;BME280;26987;59.928;30.306;2023-07-31T11:40:43;100347.16;;;25.45;39.84
41254;BME280;26987;59.928;30.306;2023-07-31T11:43:11;100353.94;;;25.39;40.50
41254;BME280;26987;59.928;30.306;2023-07-31T11:45:47;100345.00;;;25.34;40.24
41254;BME280;26987;59.928;30.306;2023-07-31T11:48:22;100344.28;;;25.51;40.62
41254;BME280;26987;59.928;30.306;2023-07-31T11:50:51;100312.41;;;25.32;40.65
41254;BME280;26987;59.928;30.306;2023-07-31T11:53:24;100340.50;;;25.78;39.80
41254;BME280;26987;59.928;30.306;2023-07-31T11:55:53;100343.59;;;26.03;39.63
41254;BME280;26987;59.928;30.306;2023-07-31T11:58:22;100339.09;;;26.34;39.11
41254;BME280;26987;59.928;30.306;2023-07-31T12:00:51;100338.59;;;26.41;38.84
41254;BME280;26987;59.928;30.306;2023-07-31T12:03:20;100332.63;;;26.30;38.37
41254;BME280;26987;59.928;30.306;2023-07-31T12:05:48;100343.75;;;26.16;39.09
41254;BME280;26987;59.928;30.306;2023-07-31T12:08:16;100333.56;;;25.90;39.54
41254;BME280;26987;59.928;30.306;2023-07-31T12:10:44;100334.97;;;25.69;40.10
41254;BME280;26987;59.928;30.306;2023-07-31T12:13:20;100322.66;;;25.58;40.04
41254;BME280;26987;59.928;30.306;2023-07-31T12:15:49;100331.56;;;25.64;40.25
41254;BME280;26987;59.928;30.306;2023-07-31T12:18:19;100327.09;;;25.77;39.67
41254;BME280;26987;59.928;30.306;2023-07-31T12:20:49;100331.78;;;25.76;39.45
41254;BME280;26987;59.928;30.306;2023-07-31T12:23:22;100329.97;;;25.72;39.62
41254;BME280;26987;59.928;30.306;2023-07-31T12:26:01;100331.31;;;25.92;39.85
41254;BME280;26987;59.928;30.306;2023-07-31T12:28:29;100335.03;;;26.14;39.20
41254;BME280;26987;59.928;30.306;2023-07-31T12:30:58;100321.16;;;26.19;38.71
41254;BME280;26987;59.928;30.306;2023-07-31T12:33:33;100316.63;;;26.32;38.78
41254;BME280;26987;59.928;30.306;2023-07-31T12:36:02;100319.69;;;26.22;38.08
41254;BME280;26987;59.928;30.306;2023-07-31T12:38:30;100321.13;;;26.01;38.58
41254;BME280;26987;59.928;30.306;2023-07-31T12:40:58;100320.66;;;25.81;39.27
41254;BME280;26987;59.928;30.306;2023-07-31T12:43:26;100309.16;;;25.79;39.13
41254;BME280;26987;59.928;30.306;2023-07-31T12:45:54;100257.25;;;25.42;39.38
41254;BME280;26987;59.928;30.306;2023-07-31T12:48:23;100321.44;;;25.82;39.46
41254;BME280;26987;59.928;30.306;2023-07-31T12:50:52;100314.13;;;25.60;39.81